sensor_id;sensor_type;location;lat;lon;timestamp;P1;durP1;ratioP1;P2;durP2;ratioP2
45049;SDS011;61798;48.048;-1.928;2023-12-14T00:00:34;6.47;;;1.80;;
45049;SDS011;61798;48.048;-1.928;2023-12-14T00:02:40;7.40;;;2.78;;
45049;SDS011;61798;48.048;-1.928;2023-12-14T00:04:45;10.48;;;2.47;;
45049;SDS011;61798;48.048;-1.928;2023-12-14T00:06:51;6.65;;;2.15;;
45049;SDS011;61798;48.048;-1.928;2023-12-14T00:08:57;4.85;;;1.40;;
45049;SDS011;61798;48.048;-1.928;2023-12-14T00:11:11;4.65;;;1.85;;
45049;SDS011;61798;48.048;-1.928;2023-12-14T00:13:18;9.15;;;2.05;;
45049;SDS011;61798;48.048;-1.928;2023-12-14T00:15:25;7.45;;;1.83;;
45049;SDS011;61798;48.048;-1.928;2023-12-14T00:17:32;9.60;;;2.17;;
45049;SDS011;61798;48.048;-1.928;2023-12-14T00:19:39;8.35;;;1.65;;
45049;SDS011;61798;48.048;-1.928;2023-12-14T00:21:46;5.63;;;1.58;;
45049;SDS011;61798;48.048;-1.928;2023-12-14T00:23:53;6.25;;;2.00;;
45049;SDS011;61798;48.048;-1.928;2023-12-14T00:25:59;8.98;;;1.80;;
45049;SDS011;61798;48.048;-1.928;2023-12-14T00:28:07;3.95;;;1.55;;
45049;SDS011;61798;48.048;-1.928;2023-12-14T00:30:14;6.53;;;1.90;;
45049;SDS011;61798;48.048;-1.928;2023-12-14T00:32:21;8.70;;;1.40;;
45049;SDS011;61798;48.048;-1.928;2023-12-14T00:34:28;4.18;;;1.80;;
45049;SDS011;61798;48.048;-1.928;2023-12-14T00:36:35;6.57;;;1.55;;
45049;SDS011;61798;48.048;-1.928;2023-12-14T00:38:42;12.40;;;2.28;;
45049;SDS011;61798;48.048;-1.928;2023-12-14T00:40:49;5.85;;;2.10;;
45049;SDS011;61798;48.048;-1.928;2023-12-14T00:42:56;3.78;;;1.85;;
45049;SDS011;61798;48.048;-1.928;2023-12-14T00:45:03;6.95;;;2.03;;
45049;SDS011;61798;48.048;-1.928;2023-12-14T00:47:11;6.13;;;1.90;;
45049;SDS011;61798;48.048;-1.928;2023-12-14T00:49:18;7.78;;;1.55;;
45049;SDS011;61798;48.048;-1.928;2023-12-14T00:51:25;5.00;;;1.88;;
45049;SDS011;61798;48.048;-1.928;2023-12-14T00:53:33;6.45;;;1.77;;
45049;SDS011;61798;48.048;-1.928;2023-12-14T00:55:40;4.35;;;1.52;;
45049;SDS011;61798;48.048;-1.928;2023-12-14T00:57:47;3.72;;;1.42;;
45049;SDS011;61798;48.048;-1.928;2023-12-14T00:59:55;7.93;;;1.35;;
45049;SDS011;61798;48.048;-1.928;2023-12-14T01:02:02;3.70;;;1.67;;
45049;SDS011;61798;48.048;-1.928;2023-12-14T01:04:09;6.50;;;1.90;;
45049;SDS011;61798;48.048;-1.928;2023-12-14T01:06:16;5.97;;;1.85;;
45049;SDS011;61798;48.048;-1.928;2023-12-14T01:08:23;7.30;;;1.95;;
45049;SDS011;61798;48.048;-1.928;2023-12-14T01:10:30;13.63;;;2.88;;
45049;SDS011;61798;48.048;-1.928;2023-12-14T01:12:37;7.05;;;2.00;;
45049;SDS011;61798;48.048;-1.928;2023-12-14T01:14:44;4.88;;;1.95;;
45049;SDS011;61798;48.048;-1.928;2023-12-14T01:16:51;7.97;;;2.08;;
45049;SDS011;61798;48.048;-1.928;2023-12-14T01:18:58;5.80;;;1.40;;
45049;SDS011;61798;48.048;-1.928;2023-12-14T01:21:06;2.95;;;1.00;;
45049;SDS011;61798;48.048;-1.928;2023-12-14T01:23:13;3.00;;;1.20;;
45049;SDS011;61798;48.048;-1.928;2023-12-14T01:25:20;9.50;;;2.70;;
45049;SDS011;61798;48.048;-1.928;2023-12-14T01:27:27;10.05;;;4.43;;
45049;SDS011;61798;48.048;-1.928;2023-12-14T01:29:34;22.27;;;7.70;;
45049;SDS011;61798;48.048;-1.928;2023-12-14T01:31:41;15.30;;;4.82;;
45049;SDS011;61798;48.048;-1.928;2023-12-14T01:33:48;18.40;;;5.25;;
45049;SDS011;61798;48.048;-1.928;2023-12-14T01:35:56;23.30;;;7.20;;
45049;SDS011;61798;48.048;-1.928;2023-12-14T01:38:03;10.38;;;3.90;;
45049;SDS011;61798;48.048;-1.928;2023-12-14T01:40:10;9.00;;;2.67;;
45049;SDS011;61798;48.048;-1.928;2023-12-14T01:42:17;6.88;;;2.78;;
45049;SDS011;61798;48.048;-1.928;2023-12-14T01:44:24;9.18;;;2.90;;
45049;SDS011;61798;48.048;-1.928;2023-12-14T01:46:31;4.82;;;2.17;;
45049;SDS011;61798;48.048;-1.928;2023-12-14T01:48:38;5.57;;;1.80;;
45049;SDS011;61798;48.048;-1.928;2023-12-14T01:50:45;5.80;;;1.80;;
45049;SDS011;61798;48.048;-1.928;2023-12-14T01:52:52;4.63;;;1.80;;
45049;SDS011;61798;48.048;-1.928;2023-12-14T01:54:59;5.25;;;1.50;;
45049;SDS011;61798;48.048;-1.928;2023-12-14T01:57:06;4.38;;;1.98;;
45049;SDS011;61798;48.048;-1.928;2023-12-14T01:59:13;4.55;;;1.70;;
45049;SDS011;61798;48.048;-1.928;2023-12-14T02:01:34;6.40;;;1.48;;
45049;SDS011;61798;48.048;-1.928;2023-12-14T02:03:48;6.38;;;1.60;;
45049;SDS011;61798;48.048;-1.928;2023-12-14T02:05:59;9.35;;;1.98;;
45049;SDS011;61798;48.048;-1.928;2023-12-14T02:08:07;4.13;;;2.00;;
45049;SDS011;61798;48.048;-1.928;2023-12-14T02:10:15;3.10;;;1.98;;
45049;SDS011;61798;48.048;-1.928;2023-12-14T02:12:22;6.40;;;1.40;;
45049;SDS011;61798;48.048;-1.928;2023-12-14T02:14:29;5.07;;;1.88;;
45049;SDS011;61798;48.048;-1.928;2023-12-14T02:16:36;2.83;;;1.40;;
45049;SDS011;61798;48.048;-1.928;2023-12-14T02:18:45;4.53;;;1.58;;
45049;SDS011;61798;48.048;-1.928;2023-12-14T02:20:52;4.93;;;1.50;;
45049;SDS011;61798;48.048;-1.928;2023-12-14T02:22:59;3.22;;;1.30;;
45049;SDS011;61798;48.048;-1.928;2023-12-14T02:25:08;6.70;;;1.40;;
45049;SDS011;61798;48.048;-1.928;2023-12-14T02:27:15;3.08;;;1.45;;
45049;SDS011;61798;48.048;-1.928;2023-12-14T02:29:22;2.97;;;1.40;;
45049;SDS011;61798;48.048;-1.928;2023-12-14T02:31:29;4.13;;;2.03;;
45049;SDS011;61798;48.048;-1.928;2023-12-14T02:33:36;11.15;;;2.25;;
45049;SDS011;61798;48.048;-1.928;2023-12-14T02:35:43;10.57;;;2.13;;
45049;SDS011;61798;48.048;-1.928;2023-12-14T02:37:50;4.35;;;1.65;;
45049;SDS011;61798;48.048;-1.928;2023-12-14T02:39:58;1.73;;;1.20;;
45049;SDS011;61798;48.048;-1.928;2023-12-14T02:42:05;7.63;;;1.60;;
45049;SDS011;61798;48.048;-1.928;2023-12-14T02:44:12;4.32;;;1.30;;
45049;SDS011;61798;48.048;-1.928;2023-12-14T02:46:19;3.90;;;1.42;;
45049;SDS011;61798;48.048;-1.928;2023-12-14T02:48:26;3.63;;;1.45;;
45049;SDS011;61798;48.048;-1.928;2023-12-14T02:50:33;3.72;;;1.70;;
45049;SDS011;61798;48.048;-1.928;2023-12-14T02:52:40;6.00;;;1.85;;
45049;SDS011;61798;48.048;-1.928;2023-12-14T02:54:47;5.55;;;1.00;;
45049;SDS011;61798;48.048;-1.928;2023-12-14T02:56:55;3.42;;;1.33;;
45049;SDS011;61798;48.048;-1.928;2023-12-14T02:59:02;4.53;;;1.65;;
45049;SDS011;61798;48.048;-1.928;2023-12-14T03:01:09;1.25;;;1.08;;
45049;SDS011;61798;48.048;-1.928;2023-12-14T03:03:16;3.05;;;1.08;;
45049;SDS011;61798;48.048;-1.928;2023-12-14T03:05:23;3.30;;;0.98;;
45049;SDS011;61798;48.048;-1.928;2023-12-14T03:07:30;3.00;;;1.13;;
45049;SDS011;61798;48.048;-1.928;2023-12-14T03:09:40;1.92;;;1.30;;
45049;SDS011;61798;48.048;-1.928;2023-12-14T03:11:51;6.97;;;1.60;;
45049;SDS011;61798;48.048;-1.928;2023-12-14T03:13:59;1.88;;;1.05;;
45049;SDS011;61798;48.048;-1.928;2023-12-14T03:16:15;5.68;;;1.45;;
45049;SDS011;61798;48.048;-1.928;2023-12-14T03:18:25;2.22;;;1.05;;
45049;SDS011;61798;48.048;-1.928;2023-12-14T03:20:32;4.03;;;1.48;;
45049;SDS011;61798;48.048;-1.928;2023-12-14T03:22:40;5.32;;;1.52;;
45049;SDS011;61798;48.048;-1.928;2023-12-14T03:24:47;2.30;;;1.30;;
45049;SDS011;61798;48.048;-1.928;2023-12-14T03:26:54;2.83;;;1.15;;
45049;SDS011;61798;48.048;-1.928;2023-12-14T03:29:01;3.05;;;1.25;;
45049;SDS011;61798;48.048;-1.928;2023-12-14T03:31:11;7.07;;;1.08;;
45049;SDS011;61798;48.048;-1.928;2023-12-14T03:33:21;3.03;;;1.35;;
45049;SDS011;61798;48.048;-1.928;2023-12-14T03:35:28;3.08;;;1.08;;
45049;SDS011;61798;48.048;-1.928;2023-12-14T03:37:35;2.80;;;1.40;;
45049;SDS011;61798;48.048;-1.928;2023-12-14T03:39:43;2.20;;;1.00;;
45049;SDS011;61798;48.048;-1.928;2023-12-14T03:41:50;4.18;;;1.33;;
45049;SDS011;61798;48.048;-1.928;2023-12-14T03:43:57;5.70;;;1.00;;
45049;SDS011;61798;48.048;-1.928;2023-12-14T03:46:05;3.60;;;1.25;;
45049;SDS011;61798;48.048;-1.928;2023-12-14T03:48:13;6.85;;;1.60;;
45049;SDS011;61798;48.048;-1.928;2023-12-14T03:50:20;5.38;;;2.03;;
45049;SDS011;61798;48.048;-1.928;2023-12-14T03:52:27;5.07;;;1.02;;
45049;SDS011;61798;48.048;-1.928;2023-12-14T03:54:37;3.55;;;1.02;;
45049;SDS011;61798;48.048;-1.928;2023-12-14T03:56:44;6.60;;;1.27;;
45049;SDS011;61798;48.048;-1.928;2023-12-14T03:58:51;3.92;;;1.50;;
45049;SDS011;61798;48.048;-1.928;2023-12-14T04:00:58;3.35;;;1.25;;
45049;SDS011;61798;48.048;-1.928;2023-12-14T04:03:05;2.10;;;1.15;;
45049;SDS011;61798;48.048;-1.928;2023-12-14T04:05:12;7.53;;;1.40;;
45049;SDS011;61798;48.048;-1.928;2023-12-14T04:07:20;4.05;;;1.35;;
45049;SDS011;61798;48.048;-1.928;2023-12-14T04:09:28;2.67;;;1.20;;
45049;SDS011;61798;48.048;-1.928;2023-12-14T04:11:35;2.25;;;1.10;;
45049;SDS011;61798;48.048;-1.928;2023-12-14T04:13:42;5.68;;;1.30;;
45049;SDS011;61798;48.048;-1.928;2023-12-14T04:15:49;2.10;;;1.25;;
45049;SDS011;61798;48.048;-1.928;2023-12-14T04:17:56;2.72;;;1.00;;
45049;SDS011;61798;48.048;-1.928;2023-12-14T04:20:03;2.25;;;1.10;;
45049;SDS011;61798;48.048;-1.928;2023-12-14T04:22:19;2.22;;;1.30;;
45049;SDS011;61798;48.048;-1.928;2023-12-14T04:24:27;3.95;;;1.25;;
45049;SDS011;61798;48.048;-1.928;2023-12-14T04:26:34;7.10;;;1.73;;
45049;SDS011;61798;48.048;-1.928;2023-12-14T04:28:41;3.00;;;1.58;;
45049;SDS011;61798;48.048;-1.928;2023-12-14T04:30:50;2.55;;;1.17;;
45049;SDS011;61798;48.048;-1.928;2023-12-14T04:32:57;7.03;;;1.50;;
45049;SDS011;61798;48.048;-1.928;2023-12-14T04:35:04;5.80;;;1.27;;
45049;SDS011;61798;48.048;-1.928;2023-12-14T04:37:12;8.57;;;1.85;;
45049;SDS011;61798;48.048;-1.928;2023-12-14T04:39:19;4.50;;;1.70;;
45049;SDS011;61798;48.048;-1.928;2023-12-14T04:41:26;3.05;;;1.40;;
45049;SDS011;61798;48.048;-1.928;2023-12-14T04:43:33;2.13;;;1.25;;
45049;SDS011;61798;48.048;-1.928;2023-12-14T04:45:40;5.43;;;1.85;;
45049;SDS011;61798;48.048;-1.928;2023-12-14T04:47:47;7.38;;;2.63;;
45049;SDS011;61798;48.048;-1.928;2023-12-14T04:49:54;6.53;;;2.35;;
45049;SDS011;61798;48.048;-1.928;2023-12-14T04:52:01;4.60;;;2.05;;
45049;SDS011;61798;48.048;-1.928;2023-12-14T04:54:08;5.53;;;1.80;;
45049;SDS011;61798;48.048;-1.928;2023-12-14T04:56:16;2.67;;;1.80;;
45049;SDS011;61798;48.048;-1.928;2023-12-14T04:58:23;3.88;;;1.42;;
45049;SDS011;61798;48.048;-1.928;2023-12-14T05:00:30;6.75;;;1.52;;
45049;SDS011;61798;48.048;-1.928;2023-12-14T05:02:37;2.60;;;0.90;;
45049;SDS011;61798;48.048;-1.928;2023-12-14T05:04:44;1.67;;;1.10;;
45049;SDS011;61798;48.048;-1.928;2023-12-14T05:06:51;2.97;;;1.40;;
45049;SDS011;61798;48.048;-1.928;2023-12-14T05:08:59;1.73;;;1.20;;
45049;SDS011;61798;48.048;-1.928;2023-12-14T05:11:07;2.38;;;1.23;;
45049;SDS011;61798;48.048;-1.928;2023-12-14T05:13:13;4.70;;;1.70;;
45049;SDS011;61798;48.048;-1.928;2023-12-14T05:15:19;4.15;;;1.35;;
45049;SDS011;61798;48.048;-1.928;2023-12-14T05:17:24;5.20;;;1.35;;
45049;SDS011;61798;48.048;-1.928;2023-12-14T05:19:31;1.98;;;1.00;;
45049;SDS011;61798;48.048;-1.928;2023-12-14T05:21:39;11.98;;;1.58;;
45049;SDS011;61798;48.048;-1.928;2023-12-14T05:23:45;5.38;;;1.42;;
45049;SDS011;61798;48.048;-1.928;2023-12-14T05:25:51;5.75;;;1.80;;
45049;SDS011;61798;48.048;-1.928;2023-12-14T05:27:57;6.45;;;2.33;;
45049;SDS011;61798;48.048;-1.928;2023-12-14T05:30:03;6.40;;;2.70;;
45049;SDS011;61798;48.048;-1.928;2023-12-14T05:32:09;5.68;;;2.97;;
45049;SDS011;61798;48.048;-1.928;2023-12-14T05:34:15;10.93;;;3.83;;
45049;SDS011;61798;48.048;-1.928;2023-12-14T05:36:21;10.88;;;3.80;;
45049;SDS011;61798;48.048;-1.928;2023-12-14T05:38:27;4.15;;;1.98;;
45049;SDS011;61798;48.048;-1.928;2023-12-14T05:40:32;6.03;;;1.98;;
45049;SDS011;61798;48.048;-1.928;2023-12-14T05:42:39;7.13;;;1.90;;
45049;SDS011;61798;48.048;-1.928;2023-12-14T05:44:45;4.28;;;1.40;;
45049;SDS011;61798;48.048;-1.928;2023-12-14T05:46:50;6.68;;;1.42;;
45049;SDS011;61798;48.048;-1.928;2023-12-14T05:48:56;2.38;;;1.23;;
45049;SDS011;61798;48.048;-1.928;2023-12-14T05:51:02;4.30;;;1.30;;
45049;SDS011;61798;48.048;-1.928;2023-12-14T05:53:09;6.80;;;1.00;;
45049;SDS011;61798;48.048;-1.928;2023-12-14T05:55:16;5.30;;;1.17;;
45049;SDS011;61798;48.048;-1.928;2023-12-14T05:57:29;6.70;;;1.63;;
45049;SDS011;61798;48.048;-1.928;2023-12-14T05:59:36;6.22;;;1.48;;
45049;SDS011;61798;48.048;-1.928;2023-12-14T06:01:43;3.33;;;1.10;;
45049;SDS011;61798;48.048;-1.928;2023-12-14T06:03:50;5.53;;;1.20;;
45049;SDS011;61798;48.048;-1.928;2023-12-14T06:05:57;1.60;;;0.95;;
45049;SDS011;61798;48.048;-1.928;2023-12-14T06:08:04;2.92;;;1.20;;
45049;SDS011;61798;48.048;-1.928;2023-12-14T06:10:14;1.38;;;0.98;;
45049;SDS011;61798;48.048;-1.928;2023-12-14T06:12:21;6.55;;;1.55;;
45049;SDS011;61798;48.048;-1.928;2023-12-14T06:14:28;3.03;;;1.10;;
45049;SDS011;61798;48.048;-1.928;2023-12-14T06:16:35;2.45;;;0.93;;
45049;SDS011;61798;48.048;-1.928;2023-12-14T06:18:42;2.25;;;0.93;;
45049;SDS011;61798;48.048;-1.928;2023-12-14T06:20:48;3.08;;;0.95;;
45049;SDS011;61798;48.048;-1.928;2023-12-14T06:22:56;1.92;;;1.00;;
45049;SDS011;61798;48.048;-1.928;2023-12-14T06:25:01;2.42;;;1.08;;
45049;SDS011;61798;48.048;-1.928;2023-12-14T06:27:09;7.78;;;1.48;;
45049;SDS011;61798;48.048;-1.928;2023-12-14T06:29:16;2.95;;;1.23;;
45049;SDS011;61798;48.048;-1.928;2023-12-14T06:31:25;4.68;;;1.38;;
45049;SDS011;61798;48.048;-1.928;2023-12-14T06:33:31;5.28;;;1.13;;
45049;SDS011;61798;48.048;-1.928;2023-12-14T06:35:38;3.55;;;1.20;;
45049;SDS011;61798;48.048;-1.928;2023-12-14T06:37:44;2.63;;;1.20;;
45049;SDS011;61798;48.048;-1.928;2023-12-14T06:39:51;4.13;;;1.40;;
45049;SDS011;61798;48.048;-1.928;2023-12-14T06:41:59;3.83;;;1.05;;
45049;SDS011;61798;48.048;-1.928;2023-12-14T06:44:06;6.47;;;1.23;;
45049;SDS011;61798;48.048;-1.928;2023-12-14T06:46:15;2.88;;;1.13;;
45049;SDS011;61798;48.048;-1.928;2023-12-14T06:48:22;2.63;;;0.90;;
45049;SDS011;61798;48.048;-1.928;2023-12-14T06:50:29;1.65;;;0.93;;
45049;SDS011;61798;48.048;-1.928;2023-12-14T06:52:35;1.60;;;0.93;;
45049;SDS011;61798;48.048;-1.928;2023-12-14T06:54:42;1.42;;;1.00;;
45049;SDS011;61798;48.048;-1.928;2023-12-14T06:56:49;4.03;;;1.05;;
45049;SDS011;61798;48.048;-1.928;2023-12-14T06:58:57;0.98;;;0.80;;
45049;SDS011;61798;48.048;-1.928;2023-12-14T07:01:03;3.28;;;0.98;;
45049;SDS011;61798;48.048;-1.928;2023-12-14T07:03:10;5.00;;;0.85;;
45049;SDS011;61798;48.048;-1.928;2023-12-14T07:05:17;5.57;;;0.82;;
45049;SDS011;61798;48.048;-1.928;2023-12-14T07:07:23;3.65;;;1.17;;
45049;SDS011;61798;48.048;-1.928;2023-12-14T07:09:29;3.17;;;0.95;;
45049;SDS011;61798;48.048;-1.928;2023-12-14T07:11:35;6.60;;;1.85;;
45049;SDS011;61798;48.048;-1.928;2023-12-14T07:13:41;5.82;;;0.98;;
45049;SDS011;61798;48.048;-1.928;2023-12-14T07:15:46;4.22;;;1.02;;
45049;SDS011;61798;48.048;-1.928;2023-12-14T07:17:52;2.80;;;1.10;;
45049;SDS011;61798;48.048;-1.928;2023-12-14T07:19:58;1.85;;;0.90;;
45049;SDS011;61798;48.048;-1.928;2023-12-14T07:22:04;1.38;;;0.63;;
45049;SDS011;61798;48.048;-1.928;2023-12-14T07:24:10;1.05;;;0.75;;
45049;SDS011;61798;48.048;-1.928;2023-12-14T07:26:15;1.30;;;1.15;;
45049;SDS011;61798;48.048;-1.928;2023-12-14T07:28:21;3.63;;;1.02;;
45049;SDS011;61798;48.048;-1.928;2023-12-14T07:30:27;4.72;;;1.65;;
45049;SDS011;61798;48.048;-1.928;2023-12-14T07:32:33;2.83;;;1.40;;
45049;SDS011;61798;48.048;-1.928;2023-12-14T07:34:39;5.40;;;1.73;;
45049;SDS011;61798;48.048;-1.928;2023-12-14T07:36:45;2.80;;;1.17;;
45049;SDS011;61798;48.048;-1.928;2023-12-14T07:38:51;2.25;;;1.30;;
45049;SDS011;61798;48.048;-1.928;2023-12-14T07:40:58;2.03;;;1.23;;
45049;SDS011;61798;48.048;-1.928;2023-12-14T07:43:04;2.78;;;1.27;;
45049;SDS011;61798;48.048;-1.928;2023-12-14T07:45:10;4.00;;;1.20;;
45049;SDS011;61798;48.048;-1.928;2023-12-14T07:47:16;2.83;;;1.23;;
45049;SDS011;61798;48.048;-1.928;2023-12-14T07:49:22;2.58;;;1.10;;
45049;SDS011;61798;48.048;-1.928;2023-12-14T07:51:28;2.13;;;1.05;;
45049;SDS011;61798;48.048;-1.928;2023-12-14T07:53:34;3.60;;;1.27;;
45049;SDS011;61798;48.048;-1.928;2023-12-14T07:55:40;1.30;;;0.80;;
45049;SDS011;61798;48.048;-1.928;2023-12-14T07:57:47;1.17;;;0.90;;
45049;SDS011;61798;48.048;-1.928;2023-12-14T07:59:53;3.25;;;1.10;;
45049;SDS011;61798;48.048;-1.928;2023-12-14T08:01:59;3.92;;;1.10;;
45049;SDS011;61798;48.048;-1.928;2023-12-14T08:04:05;3.35;;;1.10;;
45049;SDS011;61798;48.048;-1.928;2023-12-14T08:06:10;2.58;;;1.00;;
45049;SDS011;61798;48.048;-1.928;2023-12-14T08:08:16;4.32;;;0.90;;
45049;SDS011;61798;48.048;-1.928;2023-12-14T08:10:22;1.23;;;0.98;;
45049;SDS011;61798;48.048;-1.928;2023-12-14T08:12:28;1.63;;;1.00;;
45049;SDS011;61798;48.048;-1.928;2023-12-14T08:14:34;1.90;;;1.20;;
45049;SDS011;61798;48.048;-1.928;2023-12-14T08:16:41;3.00;;;1.30;;
45049;SDS011;61798;48.048;-1.928;2023-12-14T08:18:47;3.30;;;1.27;;
45049;SDS011;61798;48.048;-1.928;2023-12-14T08:20:53;5.00;;;1.40;;
45049;SDS011;61798;48.048;-1.928;2023-12-14T08:23:00;2.50;;;1.38;;
45049;SDS011;61798;48.048;-1.928;2023-12-14T08:25:06;7.88;;;2.03;;
45049;SDS011;61798;48.048;-1.928;2023-12-14T08:27:12;2.42;;;0.90;;
45049;SDS011;61798;48.048;-1.928;2023-12-14T08:29:18;2.55;;;1.10;;
45049;SDS011;61798;48.048;-1.928;2023-12-14T08:31:24;1.73;;;1.25;;
45049;SDS011;61798;48.048;-1.928;2023-12-14T08:33:30;3.42;;;1.27;;
45049;SDS011;61798;48.048;-1.928;2023-12-14T08:35:36;2.78;;;1.52;;
45049;SDS011;61798;48.048;-1.928;2023-12-14T08:37:42;4.35;;;1.50;;
45049;SDS011;61798;48.048;-1.928;2023-12-14T08:39:49;2.67;;;1.35;;
45049;SDS011;61798;48.048;-1.928;2023-12-14T08:41:55;1.67;;;1.02;;
45049;SDS011;61798;48.048;-1.928;2023-12-14T08:44:01;4.60;;;1.45;;
45049;SDS011;61798;48.048;-1.928;2023-12-14T08:46:06;1.95;;;1.20;;
45049;SDS011;61798;48.048;-1.928;2023-12-14T08:48:12;2.45;;;1.42;;
45049;SDS011;61798;48.048;-1.928;2023-12-14T08:50:18;4.25;;;1.17;;
45049;SDS011;61798;48.048;-1.928;2023-12-14T08:52:24;2.67;;;1.40;;
45049;SDS011;61798;48.048;-1.928;2023-12-14T08:54:30;2.42;;;1.20;;
45049;SDS011;61798;48.048;-1.928;2023-12-14T08:56:36;2.83;;;1.00;;
45049;SDS011;61798;48.048;-1.928;2023-12-14T08:58:41;3.78;;;1.17;;
45049;SDS011;61798;48.048;-1.928;2023-12-14T09:00:47;3.50;;;1.30;;
45049;SDS011;61798;48.048;-1.928;2023-12-14T09:02:58;4.00;;;1.20;;
45049;SDS011;61798;48.048;-1.928;2023-12-14T09:05:03;5.68;;;1.75;;
45049;SDS011;61798;48.048;-1.928;2023-12-14T09:07:12;3.50;;;1.30;;
45049;SDS011;61798;48.048;-1.928;2023-12-14T09:09:18;3.85;;;1.58;;
45049;SDS011;61798;48.048;-1.928;2023-12-14T09:11:24;6.07;;;1.50;;
45049;SDS011;61798;48.048;-1.928;2023-12-14T09:13:30;4.72;;;1.45;;
45049;SDS011;61798;48.048;-1.928;2023-12-14T09:15:35;5.10;;;1.73;;
45049;SDS011;61798;48.048;-1.928;2023-12-14T09:17:41;7.00;;;1.77;;
45049;SDS011;61798;48.048;-1.928;2023-12-14T09:19:48;2.85;;;1.20;;
45049;SDS011;61798;48.048;-1.928;2023-12-14T09:21:54;3.10;;;1.40;;
45049;SDS011;61798;48.048;-1.928;2023-12-14T09:24:00;1.80;;;1.10;;
45049;SDS011;61798;48.048;-1.928;2023-12-14T09:26:06;4.07;;;1.80;;
45049;SDS011;61798;48.048;-1.928;2023-12-14T09:28:12;5.80;;;1.33;;
45049;SDS011;61798;48.048;-1.928;2023-12-14T09:30:18;4.63;;;1.35;;
45049;SDS011;61798;48.048;-1.928;2023-12-14T09:32:25;2.08;;;1.20;;
45049;SDS011;61798;48.048;-1.928;2023-12-14T09:34:31;3.10;;;1.13;;
45049;SDS011;61798;48.048;-1.928;2023-12-14T09:36:37;2.83;;;1.00;;
45049;SDS011;61798;48.048;-1.928;2023-12-14T09:38:43;4.72;;;1.88;;
45049;SDS011;61798;48.048;-1.928;2023-12-14T09:40:49;4.45;;;1.25;;
45049;SDS011;61798;48.048;-1.928;2023-12-14T09:42:55;4.65;;;1.58;;
45049;SDS011;61798;48.048;-1.928;2023-12-14T09:45:01;3.17;;;1.40;;
45049;SDS011;61798;48.048;-1.928;2023-12-14T09:47:07;2.70;;;1.27;;
45049;SDS011;61798;48.048;-1.928;2023-12-14T09:49:13;5.32;;;1.60;;
45049;SDS011;61798;48.048;-1.928;2023-12-14T09:51:19;3.35;;;1.20;;
45049;SDS011;61798;48.048;-1.928;2023-12-14T09:53:25;4.80;;;1.45;;
45049;SDS011;61798;48.048;-1.928;2023-12-14T09:55:31;2.55;;;1.48;;
45049;SDS011;61798;48.048;-1.928;2023-12-14T09:57:37;2.25;;;1.13;;
45049;SDS011;61798;48.048;-1.928;2023-12-14T09:59:50;2.35;;;0.98;;
45049;SDS011;61798;48.048;-1.928;2023-12-14T10:02:12;1.95;;;0.88;;
45049;SDS011;61798;48.048;-1.928;2023-12-14T10:04:19;2.47;;;1.15;;
45049;SDS011;61798;48.048;-1.928;2023-12-14T10:06:25;3.50;;;1.02;;
45049;SDS011;61798;48.048;-1.928;2023-12-14T10:08:31;1.30;;;1.05;;
45049;SDS011;61798;48.048;-1.928;2023-12-14T10:10:37;3.15;;;1.27;;
45049;SDS011;61798;48.048;-1.928;2023-12-14T10:13:04;9.90;;;1.20;;
45049;SDS011;61798;48.048;-1.928;2023-12-14T10:15:09;2.30;;;1.33;;
45049;SDS011;61798;48.048;-1.928;2023-12-14T10:17:21;1.65;;;1.10;;
45049;SDS011;61798;48.048;-1.928;2023-12-14T10:19:29;2.45;;;1.20;;
45049;SDS011;61798;48.048;-1.928;2023-12-14T10:21:35;2.92;;;1.20;;
45049;SDS011;61798;48.048;-1.928;2023-12-14T10:23:44;4.63;;;1.00;;
45049;SDS011;61798;48.048;-1.928;2023-12-14T10:25:52;2.58;;;1.10;;
45049;SDS011;61798;48.048;-1.928;2023-12-14T10:27:58;3.20;;;1.00;;
45049;SDS011;61798;48.048;-1.928;2023-12-14T10:30:06;1.55;;;0.85;;
45049;SDS011;61798;48.048;-1.928;2023-12-14T10:32:14;5.10;;;1.23;;
45049;SDS011;61798;48.048;-1.928;2023-12-14T10:34:19;4.72;;;1.40;;
45049;SDS011;61798;48.048;-1.928;2023-12-14T10:36:25;2.25;;;1.00;;
45049;SDS011;61798;48.048;-1.928;2023-12-14T10:38:32;2.47;;;1.00;;
45049;SDS011;61798;48.048;-1.928;2023-12-14T10:40:41;3.97;;;1.17;;
45049;SDS011;61798;48.048;-1.928;2023-12-14T10:42:49;4.28;;;1.15;;
45049;SDS011;61798;48.048;-1.928;2023-12-14T10:44:56;4.32;;;0.90;;
45049;SDS011;61798;48.048;-1.928;2023-12-14T10:47:03;3.40;;;1.02;;
45049;SDS011;61798;48.048;-1.928;2023-12-14T10:49:12;3.33;;;0.98;;
45049;SDS011;61798;48.048;-1.928;2023-12-14T10:51:20;3.85;;;1.25;;
45049;SDS011;61798;48.048;-1.928;2023-12-14T10:53:27;4.85;;;1.23;;
45049;SDS011;61798;48.048;-1.928;2023-12-14T10:55:40;4.55;;;1.48;;
45049;SDS011;61798;48.048;-1.928;2023-12-14T10:57:48;3.80;;;1.13;;
45049;SDS011;61798;48.048;-1.928;2023-12-14T11:00:00;5.00;;;1.35;;
45049;SDS011;61798;48.048;-1.928;2023-12-14T11:02:07;4.18;;;1.38;;
45049;SDS011;61798;48.048;-1.928;2023-12-14T11:04:17;2.83;;;1.20;;
45049;SDS011;61798;48.048;-1.928;2023-12-14T11:06:30;1.48;;;1.27;;
45049;SDS011;61798;48.048;-1.928;2023-12-14T11:08:38;4.18;;;1.20;;
45049;SDS011;61798;48.048;-1.928;2023-12-14T11:10:53;8.95;;;1.50;;
45049;SDS011;61798;48.048;-1.928;2023-12-14T11:13:03;4.60;;;1.45;;
45049;SDS011;61798;48.048;-1.928;2023-12-14T11:15:12;5.40;;;1.65;;
45049;SDS011;61798;48.048;-1.928;2023-12-14T11:17:17;8.45;;;1.55;;
45049;SDS011;61798;48.048;-1.928;2023-12-14T11:19:25;8.32;;;1.45;;
45049;SDS011;61798;48.048;-1.928;2023-12-14T11:21:32;2.70;;;1.25;;
45049;SDS011;61798;48.048;-1.928;2023-12-14T11:23:38;2.78;;;1.02;;
45049;SDS011;61798;48.048;-1.928;2023-12-14T11:25:44;2.42;;;1.20;;
45049;SDS011;61798;48.048;-1.928;2023-12-14T11:27:54;5.57;;;1.30;;
45049;SDS011;61798;48.048;-1.928;2023-12-14T11:30:10;1.92;;;1.10;;
45049;SDS011;61798;48.048;-1.928;2023-12-14T11:32:17;4.05;;;1.55;;
45049;SDS011;61798;48.048;-1.928;2023-12-14T11:34:24;2.20;;;1.50;;
45049;SDS011;61798;48.048;-1.928;2023-12-14T11:36:30;3.67;;;1.77;;
45049;SDS011;61798;48.048;-1.928;2023-12-14T11:38:36;4.82;;;1.73;;
45049;SDS011;61798;48.048;-1.928;2023-12-14T11:40:42;8.60;;;2.00;;
45049;SDS011;61798;48.048;-1.928;2023-12-14T11:43:01;7.38;;;1.70;;
45049;SDS011;61798;48.048;-1.928;2023-12-14T11:45:13;4.10;;;1.60;;
45049;SDS011;61798;48.048;-1.928;2023-12-14T11:47:19;2.28;;;1.67;;
45049;SDS011;61798;48.048;-1.928;2023-12-14T11:49:25;3.53;;;2.15;;
45049;SDS011;61798;48.048;-1.928;2023-12-14T11:51:33;4.43;;;2.20;;
45049;SDS011;61798;48.048;-1.928;2023-12-14T11:53:38;6.53;;;2.05;;
45049;SDS011;61798;48.048;-1.928;2023-12-14T11:55:44;4.85;;;2.72;;
45049;SDS011;61798;48.048;-1.928;2023-12-14T11:57:51;6.60;;;3.88;;
45049;SDS011;61798;48.048;-1.928;2023-12-14T11:59:58;14.82;;;5.13;;
45049;SDS011;61798;48.048;-1.928;2023-12-14T12:02:04;11.68;;;5.65;;
45049;SDS011;61798;48.048;-1.928;2023-12-14T12:04:10;14.95;;;6.50;;
45049;SDS011;61798;48.048;-1.928;2023-12-14T12:06:26;11.80;;;4.88;;
45049;SDS011;61798;48.048;-1.928;2023-12-14T12:08:41;11.60;;;4.05;;
45049;SDS011;61798;48.048;-1.928;2023-12-14T12:10:48;7.43;;;2.92;;
45049;SDS011;61798;48.048;-1.928;2023-12-14T12:13:04;5.47;;;2.85;;
45049;SDS011;61798;48.048;-1.928;2023-12-14T12:15:12;4.75;;;2.53;;
45049;SDS011;61798;48.048;-1.928;2023-12-14T12:17:18;4.90;;;2.30;;
45049;SDS011;61798;48.048;-1.928;2023-12-14T12:19:27;7.50;;;2.15;;
45049;SDS011;61798;48.048;-1.928;2023-12-14T12:21:33;6.72;;;2.20;;
45049;SDS011;61798;48.048;-1.928;2023-12-14T12:23:38;5.82;;;2.13;;
45049;SDS011;61798;48.048;-1.928;2023-12-14T12:25:45;7.75;;;2.55;;
45049;SDS011;61798;48.048;-1.928;2023-12-14T12:27:51;4.75;;;2.35;;
45049;SDS011;61798;48.048;-1.928;2023-12-14T12:29:57;9.70;;;3.25;;
45049;SDS011;61798;48.048;-1.928;2023-12-14T12:32:03;8.07;;;3.50;;
45049;SDS011;61798;48.048;-1.928;2023-12-14T12:34:09;10.32;;;3.47;;